createdAt,value
2022-11-01T00:03:18.849Z,12
2022-11-01T00:08:26.466Z,11.8
2022-11-01T00:13:34.106Z,11.7
2022-11-01T00:18:41.750Z,11.7
2022-11-01T00:23:49.362Z,11.5
2022-11-01T00:28:57.051Z,11.5
2022-11-01T00:34:05.304Z,11.8
2022-11-01T00:39:12.114Z,11.5
2022-11-01T00:44:19.368Z,11.1
2022-11-01T00:49:26.645Z,10.8
2022-11-01T00:54:33.918Z,10.6
2022-11-01T00:59:41.279Z,10.8
2022-11-01T01:04:48.549Z,10.6
2022-11-01T01:09:55.882Z,10.8
2022-11-01T01:15:03.198Z,10.7
2022-11-01T01:20:10.524Z,10.7
2022-11-01T01:25:17.881Z,10.7
2022-11-01T01:30:25.192Z,10.9
2022-11-01T01:35:32.563Z,10.8
2022-11-01T01:40:39.957Z,10.9
2022-11-01T01:45:47.298Z,11.2
2022-11-01T01:50:54.573Z,11.8
2022-11-01T01:56:01.848Z,12.1
2022-11-01T02:01:09.191Z,12.1
2022-11-01T02:06:16.473Z,12
2022-11-01T02:11:23.730Z,11.7
2022-11-01T02:16:30.980Z,11.8
2022-11-01T02:21:38.272Z,12
2022-11-01T02:26:45.479Z,12
2022-11-01T02:31:52.718Z,11.9
2022-11-01T02:37:00.020Z,11.9
2022-11-01T02:42:07.217Z,12.1
2022-11-01T02:47:14.592Z,11.9
2022-11-01T02:52:22.000Z,11.8
2022-11-01T02:57:29.407Z,11.7
2022-11-01T03:02:36.840Z,11.7
2022-11-01T03:07:44.286Z,11.8
2022-11-01T03:12:51.669Z,11.9
2022-11-01T03:17:59.091Z,11.9
2022-11-01T03:23:06.492Z,11.8
2022-11-01T03:28:13.874Z,11.8
2022-11-01T03:33:21.290Z,11.6
2022-11-01T03:38:28.689Z,11.6
2022-11-01T03:43:36.054Z,11.7
2022-11-01T03:48:43.489Z,11.7
2022-11-01T03:53:51.157Z,11.5
2022-11-01T03:58:58.796Z,11.4
2022-11-01T04:04:06.461Z,11.3
2022-11-01T04:09:14.100Z,11.3
2022-11-01T04:14:21.756Z,11.4
2022-11-01T04:19:29.412Z,11.6
2022-11-01T04:24:37.126Z,11.6
2022-11-01T04:29:44.732Z,11.4
2022-11-01T04:34:52.420Z,11.4
2022-11-01T04:40:00.025Z,11.4
2022-11-01T04:45:07.696Z,11.4
2022-11-01T04:50:15.311Z,11.5
2022-11-01T04:55:22.953Z,11.8
2022-11-01T05:00:31.171Z,11.8
2022-11-01T05:05:38.044Z,11.9
2022-11-01T05:10:45.277Z,11.9
2022-11-01T05:15:52.532Z,11.8
2022-11-01T05:20:59.805Z,11.9
2022-11-01T05:26:07.046Z,12
2022-11-01T05:31:14.255Z,11.9
2022-11-01T05:36:21.439Z,11.9
2022-11-01T05:41:28.628Z,12
2022-11-01T05:46:35.782Z,12
2022-11-01T05:51:42.943Z,12
2022-11-01T05:56:50.087Z,12
2022-11-01T06:01:57.351Z,12.2
2022-11-01T06:07:04.522Z,12.1
2022-11-01T06:12:11.697Z,12.1
2022-11-01T06:17:18.918Z,11.9
2022-11-01T06:22:26.116Z,11.9
2022-11-01T06:27:33.337Z,11.9
2022-11-01T06:32:40.543Z,11.7
2022-11-01T06:37:47.722Z,11.6
2022-11-01T06:42:54.919Z,12.5
2022-11-01T06:48:02.082Z,12.9
2022-11-01T06:53:09.269Z,12.9
2022-11-01T06:58:16.489Z,13
2022-11-01T07:03:23.671Z,13.2
2022-11-01T07:08:30.832Z,13.3
2022-11-01T07:13:38.104Z,13.4
2022-11-01T07:18:45.392Z,13.6
2022-11-01T07:23:52.668Z,13.9
2022-11-01T07:28:59.944Z,14.1
2022-11-01T07:34:07.152Z,14
2022-11-01T07:39:14.428Z,14
2022-11-01T07:44:21.596Z,14.1
2022-11-01T07:49:28.806Z,14.2
2022-11-01T07:54:36.030Z,14.5
2022-11-01T07:59:43.220Z,15.1
2022-11-01T08:04:50.399Z,15.3
2022-11-01T08:09:57.665Z,16.1
2022-11-01T08:15:04.758Z,16.5
2022-11-01T08:20:12.234Z,16.9
2022-11-01T08:25:19.484Z,17.9
2022-11-01T08:30:26.798Z,17.4
2022-11-01T08:35:34.191Z,18.1
2022-11-01T08:40:41.573Z,18.1
2022-11-01T08:45:48.749Z,16.6
2022-11-01T08:50:56.082Z,16.9
2022-11-01T08:56:03.376Z,16.2
2022-11-01T09:01:10.767Z,16.3
2022-11-01T09:11:25.376Z,16.2
2022-11-01T09:16:32.683Z,16.2
2022-11-01T09:21:39.971Z,15.8
2022-11-01T09:26:47.904Z,15.5
2022-11-01T09:31:55.388Z,15.4
2022-11-01T09:37:01.846Z,15.6
2022-11-01T09:42:08.801Z,15.8
2022-11-01T09:47:15.842Z,16.6
2022-11-01T09:52:22.755Z,17
2022-11-01T09:57:29.746Z,17.2
2022-11-01T10:02:36.667Z,16.7
2022-11-01T10:07:43.562Z,17
2022-11-01T10:12:50.474Z,16.7
2022-11-01T10:17:57.379Z,16.5
2022-11-01T10:23:04.349Z,16.1
2022-11-01T10:28:11.277Z,16.1
2022-11-01T10:33:18.246Z,15.9
2022-11-01T10:38:25.124Z,15.7
2022-11-01T10:43:32.110Z,15.5
2022-11-01T10:48:39.180Z,15.4
2022-11-01T10:53:46.133Z,15.3
2022-11-01T10:58:53.075Z,15.2
2022-11-01T11:04:00.250Z,15.4
2022-11-01T11:09:07.264Z,15.6
2022-11-01T11:14:14.296Z,15.9
2022-11-01T11:19:21.269Z,16.3
2022-11-01T11:24:28.240Z,16.3
2022-11-01T11:29:35.187Z,16.6
2022-11-01T11:34:41.944Z,16.8
2022-11-01T11:39:49.031Z,16.9
2022-11-01T11:44:56.020Z,16.6
2022-11-01T11:50:03.092Z,16.8
2022-11-01T11:55:10.144Z,18
2022-11-01T12:00:17.187Z,18.6
2022-11-01T12:05:24.223Z,18
2022-11-01T12:10:31.133Z,18.8
2022-11-01T12:15:38.156Z,18
2022-11-01T12:20:45.298Z,17.7
2022-11-01T12:25:52.229Z,19
2022-11-01T12:30:59.227Z,18.2
2022-11-01T12:41:13.251Z,20.3
2022-11-01T12:46:20.103Z,19.6
2022-11-01T12:51:27.379Z,18.3
2022-11-01T12:56:34.618Z,17.8
2022-11-01T13:06:48.914Z,17.9
2022-11-01T13:11:56.084Z,19.3
2022-11-01T13:17:03.273Z,18.6
2022-11-01T13:27:17.477Z,18.2
2022-11-01T13:32:24.771Z,18.4
2022-11-01T13:37:31.887Z,18.5
2022-11-01T13:42:39.030Z,19
2022-11-01T13:47:46.343Z,18.5
2022-11-01T13:52:53.400Z,19
2022-11-01T13:58:01.156Z,20.3
2022-11-01T14:03:07.490Z,21
2022-11-01T14:08:14.283Z,19
2022-11-01T14:13:21.084Z,19.1
2022-11-01T14:18:27.821Z,18.1
2022-11-01T14:23:34.546Z,17.7
2022-11-01T14:28:41.390Z,17.5
2022-11-01T14:33:48.273Z,17.6
2022-11-01T14:38:55.069Z,17.2
2022-11-01T14:44:01.875Z,16.9
2022-11-01T14:49:08.815Z,16.9
2022-11-01T14:54:15.616Z,16.7
2022-11-01T14:59:22.574Z,16.5
2022-11-01T15:04:29.405Z,16.5
2022-11-01T15:09:36.382Z,16.2
2022-11-01T15:14:43.303Z,15.8
2022-11-01T15:19:50.272Z,15.2
2022-11-01T15:24:57.268Z,15
2022-11-01T15:30:04.394Z,14.7
2022-11-01T15:35:11.279Z,14.5
2022-11-01T15:40:18.284Z,14.3
2022-11-01T15:45:25.343Z,14.2
2022-11-01T15:50:32.385Z,13.9
2022-11-01T15:55:39.458Z,13.8
2022-11-01T16:00:46.559Z,13.1
2022-11-01T16:05:53.670Z,12.8
2022-11-01T16:11:00.872Z,12.8
2022-11-01T16:16:08.194Z,12.7
2022-11-01T16:21:15.501Z,12.1
2022-11-01T16:26:22.792Z,12.6
2022-11-01T16:31:30.165Z,12.4
2022-11-01T16:36:37.519Z,12.4
2022-11-01T16:41:44.919Z,12.4
2022-11-01T16:46:52.308Z,12.4
2022-11-01T16:51:59.676Z,11.8
2022-11-01T16:57:07.165Z,11.7
2022-11-01T17:02:14.478Z,11.5
2022-11-01T17:07:21.952Z,11.6
2022-11-01T17:12:29.296Z,11.8
2022-11-01T17:17:36.929Z,11.7
2022-11-01T17:22:44.637Z,11.8
2022-11-01T17:27:52.319Z,11.5
2022-11-01T17:32:59.929Z,11.5
2022-11-01T17:38:07.554Z,11.5
2022-11-01T17:43:15.265Z,11.2
2022-11-01T17:48:22.886Z,11.3
2022-11-01T17:53:30.606Z,10.7
2022-11-01T17:58:38.283Z,10.2
2022-11-01T18:03:45.927Z,9.7
2022-11-01T18:08:53.684Z,9.7
2022-11-01T18:14:01.376Z,9.6
2022-11-01T18:19:09.102Z,8.7
2022-11-01T18:24:17.439Z,8.7
2022-11-01T18:29:24.450Z,8.7
2022-11-01T18:34:32.106Z,8.7
2022-11-01T18:44:47.039Z,8.3
2022-11-01T18:49:54.742Z,8.4
2022-11-01T18:55:02.307Z,8.2
2022-11-01T19:00:09.868Z,8
2022-11-01T19:10:24.965Z,7.3
2022-11-01T19:15:32.550Z,7.4
2022-11-01T19:20:40.195Z,7
2022-11-01T19:25:47.757Z,6.8
2022-11-01T19:30:55.467Z,7.3
2022-11-01T19:36:03.087Z,7.3
2022-11-01T19:41:10.757Z,6.1
2022-11-01T19:46:18.488Z,6
2022-11-01T19:51:26.098Z,6
2022-11-01T19:56:33.707Z,6.8
2022-11-01T20:01:41.441Z,7.2
2022-11-01T20:06:49.021Z,7
2022-11-01T20:11:56.695Z,6.7
2022-11-01T20:17:04.341Z,6.5
2022-11-01T20:22:11.972Z,6.5
2022-11-01T20:27:19.701Z,7.2
2022-11-01T20:32:27.247Z,7.5
2022-11-01T20:37:35.253Z,7.4
2022-11-01T20:42:43.047Z,7.9
2022-11-01T20:47:50.926Z,8
2022-11-01T20:52:58.765Z,8.1
2022-11-01T20:58:06.668Z,8.6
2022-11-01T21:03:14.510Z,8.8
2022-11-01T21:08:22.307Z,8.8
2022-11-01T21:13:30.192Z,8.6
2022-11-01T21:18:37.937Z,8.9
2022-11-01T21:23:45.772Z,9.1
2022-11-01T21:28:53.582Z,8.8
2022-11-01T21:34:01.410Z,8.8
2022-11-01T21:39:09.217Z,9.1
2022-11-01T21:44:17.742Z,8.8
2022-11-01T21:49:24.791Z,9
2022-11-01T21:54:32.393Z,9.6
2022-11-01T21:59:40.030Z,10
2022-11-01T22:04:47.545Z,10.2
2022-11-01T22:09:55.062Z,10.3
2022-11-01T22:15:02.586Z,10.2
2022-11-01T22:20:10.168Z,10.3
2022-11-01T22:25:17.718Z,10.5
2022-11-01T22:30:25.303Z,10.3
2022-11-01T22:35:32.746Z,10.3
2022-11-01T22:40:40.268Z,10.3
2022-11-01T22:45:47.805Z,10
2022-11-01T22:50:55.336Z,10
2022-11-01T22:56:02.829Z,9.9
2022-11-01T23:01:10.373Z,9.8
2022-11-01T23:06:17.878Z,9.8
2022-11-01T23:11:25.452Z,10.2
2022-11-01T23:16:32.997Z,10
2022-11-01T23:21:40.584Z,9.6
2022-11-01T23:26:48.070Z,9.6
2022-11-01T23:31:55.612Z,9.8
2022-11-01T23:37:03.192Z,9.6
2022-11-01T23:42:10.802Z,9.5
2022-11-01T23:47:18.394Z,9.9
2022-11-01T23:52:25.984Z,9.8
2022-11-01T23:57:33.791Z,9.9
